createdAt,value
2019-04-23T00:02:53.541Z,35.92
2019-04-23T00:07:51.762Z,35.60
2019-04-23T00:12:44.123Z,35.95
2019-04-23T00:17:37.124Z,35.48
2019-04-23T00:22:36.603Z,35.31
2019-04-23T00:27:40.324Z,36.33
2019-04-23T00:37:25.958Z,36.06
2019-04-23T00:42:23.957Z,35.95
2019-04-23T00:47:09.001Z,35.83
2019-04-23T00:52:19.525Z,36.42
2019-04-23T00:57:09.024Z,37.05
2019-04-23T01:02:02.748Z,36.41
2019-04-23T01:06:58.030Z,36.24
2019-04-23T01:11:52.202Z,36.68
2019-04-23T01:16:45.946Z,36.45
2019-04-23T01:21:24.434Z,36.60
2019-04-23T01:26:46.077Z,36.66
2019-04-23T01:31:43.307Z,36.85
2019-04-23T01:36:51.598Z,37.59
2019-04-23T01:41:33.326Z,37.54
2019-04-23T01:51:31.118Z,38.35
2019-04-23T01:56:36.912Z,38.30
2019-04-23T02:01:21.484Z,39.03
2019-04-23T02:06:15.116Z,39.30
2019-04-23T02:11:10.625Z,39.85
2019-04-23T02:16:03.239Z,40.55
2019-04-23T02:21:07.527Z,40.75
2019-04-23T02:26:02.970Z,42.43
2019-04-23T02:41:04.585Z,43.61
2019-04-23T02:46:01.910Z,43.34
2019-04-23T02:50:48.886Z,43.46
2019-04-23T03:01:00.287Z,42.33
2019-04-23T03:10:43.084Z,42.69
2019-04-23T03:21:00.406Z,43.32
2019-04-23T03:25:35.745Z,44.23
2019-04-23T03:40:37.321Z,45.72
2019-04-23T03:50:35.348Z,48.33
2019-04-23T03:55:37.347Z,48.80
2019-04-23T04:00:39.680Z,49.96
2019-04-23T04:10:15.769Z,50.73
2019-04-23T04:15:31.229Z,51.44
2019-04-23T04:20:17.830Z,51.89
2019-04-23T04:25:08.774Z,51.39
2019-04-23T04:30:25.373Z,52.91
2019-04-23T04:40:05.156Z,55.47
2019-04-23T04:45:00.051Z,54.21
2019-04-23T04:50:01.966Z,53.97
2019-04-23T04:54:35.075Z,54.24
2019-04-23T04:59:46.222Z,53.05
2019-04-23T05:04:48.184Z,54.36
2019-04-23T05:09:40.742Z,53.30
2019-04-23T05:24:30.665Z,52.67
2019-04-23T05:29:19.990Z,51.43
2019-04-23T05:34:17.484Z,50.50
2019-04-23T05:39:21.502Z,48.52
2019-04-23T05:44:15.842Z,48.88
2019-04-23T05:54:06.521Z,47.86
2019-04-23T06:04:05.314Z,48.18
2019-04-23T06:08:52.848Z,48.39
2019-04-23T06:13:52.507Z,46.96
2019-04-23T06:18:49.726Z,46.38
2019-04-23T06:23:43.528Z,45.39
2019-04-23T06:28:35.143Z,45.27
2019-04-23T06:33:36.934Z,45.53
2019-04-23T06:43:49.979Z,42.35
2019-04-23T06:48:44.941Z,42.98
2019-04-23T06:53:28.632Z,43.18
2019-04-23T06:58:33.912Z,43.10
2019-04-23T07:03:35.905Z,42.41
2019-04-23T07:08:34.470Z,41.45
2019-04-23T07:13:21.237Z,41.13
2019-04-23T07:18:18.119Z,40.86
2019-04-23T07:23:14.109Z,40.10
2019-04-23T07:28:16.698Z,38.86
2019-04-23T07:33:05.634Z,39.17
2019-04-23T07:38:16.350Z,37.99
2019-04-23T07:43:03.302Z,37.04
2019-04-23T07:53:14.711Z,36.96
2019-04-23T07:58:18.622Z,37.06
2019-04-23T08:03:08.717Z,36.15
2019-04-23T08:07:58.892Z,35.89
2019-04-23T08:12:53.934Z,35.56
2019-04-23T08:17:41.285Z,35.89
2019-04-23T08:22:45.493Z,35.36
2019-04-23T08:27:43.900Z,34.50
2019-04-23T08:32:37.014Z,34.84
2019-04-23T08:37:46.713Z,34.60
2019-04-23T08:47:37.804Z,33.73
2019-04-23T08:52:32.073Z,34.03
2019-04-23T08:57:26.950Z,33.11
2019-04-23T09:02:35.306Z,32.90
2019-04-23T09:14:07.103Z,32.28
2019-04-23T09:19:16.204Z,32.55
2019-04-23T09:24:07.298Z,32.01
2019-04-23T09:29:05.961Z,31.66
2019-04-23T09:34:19.277Z,32.31
2019-04-23T09:39:34.764Z,32.35
2019-04-23T09:49:33.312Z,32.34
2019-04-23T09:54:33.895Z,32.80
2019-04-23T10:04:06.062Z,31.18
2019-04-23T10:08:54.038Z,31.73
2019-04-23T10:13:45.212Z,31.96
2019-04-23T10:18:39.439Z,32.16
2019-04-23T10:23:33.612Z,30.78
2019-04-23T10:28:35.917Z,29.67
2019-04-23T10:33:31.678Z,28.18
2019-04-23T10:38:26.703Z,27.20
2019-04-23T10:43:22.645Z,26.88
2019-04-23T10:54:15.788Z,24.38
2019-04-23T10:58:54.618Z,25.86
2019-04-23T11:04:12.011Z,24.46
2019-04-23T11:09:23.753Z,23.30
2019-04-23T11:14:10.999Z,22.55
2019-04-23T11:19:04.345Z,21.08
2019-04-23T11:24:02.069Z,21.80
2019-04-23T11:28:44.956Z,20.73
2019-04-23T11:33:52.330Z,19.75
2019-04-23T11:38:52.336Z,20.51
2019-04-23T11:43:37.647Z,20.51
2019-04-23T11:48:52.291Z,19.26
2019-04-23T11:53:39.137Z,19.36
2019-04-23T11:58:32.054Z,20.04
2019-04-23T12:03:19.417Z,18.16
2019-04-23T12:08:33.547Z,18.11
2019-04-23T12:13:27.951Z,18.01
2019-04-23T12:18:20.003Z,19.49
2019-04-23T12:23:31.674Z,18.87
2019-04-23T12:28:06.677Z,19.08
2019-04-23T12:38:01.235Z,18.31
2019-04-23T12:52:54.161Z,17.57
2019-04-23T12:57:46.791Z,19.17
2019-04-23T13:02:44.217Z,19.18
2019-04-23T13:12:42.915Z,19.70
2019-04-23T13:17:48.995Z,19.47
2019-04-23T13:27:41.603Z,19.50
2019-04-23T13:32:27.604Z,19.61
2019-04-23T13:37:32.565Z,20.04
2019-04-23T13:42:29.507Z,19.74
2019-04-23T13:47:21.966Z,20.79
2019-04-23T14:02:03.242Z,21.26
2019-04-23T14:11:54.982Z,21.69
2019-04-23T14:17:18.052Z,20.86
2019-04-23T14:21:47.173Z,21.77
2019-04-23T14:26:41.677Z,20.37
2019-04-23T14:36:39.326Z,20.94
2019-04-23T14:41:26.212Z,21.00
2019-04-23T14:51:30.834Z,20.86
2019-04-23T15:06:20.458Z,20.16
2019-04-23T15:11:20.307Z,18.96
2019-04-23T15:21:23.870Z,17.69
2019-04-23T15:26:57.084Z,16.35
2019-04-23T15:31:00.731Z,15.83
2019-04-23T15:36:04.186Z,14.79
2019-04-23T15:40:53.987Z,14.34
2019-04-23T15:45:44.759Z,13.98
2019-04-23T15:50:38.521Z,14.08
2019-04-23T15:55:33.797Z,14.37
2019-04-23T16:00:30.804Z,14.34
2019-04-23T16:05:07.464Z,15.02
2019-04-23T16:10:29.486Z,15.06
2019-04-23T16:15:28.100Z,14.65
2019-04-23T16:30:19.191Z,16.25
2019-04-23T16:35:34.694Z,16.49
2019-04-23T16:40:34.962Z,17.12
2019-04-23T16:45:24.990Z,19.15
2019-04-23T16:50:18.275Z,19.09
2019-04-23T17:05:15.814Z,26.04
2019-04-23T17:10:11.277Z,27.16
2019-04-23T17:15:03.350Z,28.15
2019-04-23T17:20:02.668Z,29.09
2019-04-23T17:25:01.072Z,29.21
2019-04-23T17:29:56.264Z,29.41
2019-04-23T17:34:48.414Z,30.37
2019-04-23T17:40:06.916Z,30.70
2019-04-23T17:45:14.992Z,31.96
2019-04-23T17:50:00.947Z,32.20
2019-04-23T17:54:50.172Z,33.44
2019-04-23T18:00:08.354Z,33.70
2019-04-23T18:09:49.519Z,34.68
2019-04-23T18:14:32.643Z,35.43
2019-04-23T18:19:34.218Z,36.41
2019-04-23T18:24:50.526Z,36.44
2019-04-23T18:30:01.022Z,36.68
2019-04-23T18:39:54.706Z,38.03
2019-04-23T18:44:48.491Z,39.21
2019-04-23T18:54:42.199Z,39.27
2019-04-23T18:59:47.390Z,39.76
2019-04-23T19:04:54.784Z,39.67
2019-04-23T19:09:47.793Z,40.23
2019-04-23T19:19:35.100Z,41.09
2019-04-23T19:29:34.922Z,42.20
2019-04-23T19:34:34.061Z,41.95
2019-04-23T19:39:29.436Z,42.31
2019-04-23T19:59:05.069Z,43.06
2019-04-23T20:03:56.155Z,43.60
2019-04-23T20:29:11.965Z,45.01
2019-04-23T20:34:02.871Z,44.89
2019-04-23T20:38:53.277Z,44.75
2019-04-23T20:43:54.599Z,44.76
2019-04-23T20:53:43.042Z,44.84
2019-04-23T20:58:39.462Z,45.26
2019-04-23T21:09:03.885Z,45.36
2019-04-23T21:18:33.070Z,45.97
2019-04-23T21:28:27.169Z,46.10
2019-04-23T21:38:33.302Z,46.21
2019-04-23T21:48:18.858Z,46.29
2019-04-23T21:53:11.753Z,46.13
2019-04-23T21:58:07.242Z,47.16
2019-04-23T22:03:34.452Z,46.52
2019-04-23T22:13:02.648Z,46.08
2019-04-23T22:22:57.149Z,46.26
2019-04-23T22:27:44.084Z,46.28
2019-04-23T22:37:29.960Z,46.47
2019-04-23T22:43:01.176Z,47.13
2019-04-23T22:47:25.949Z,47.16
2019-04-23T22:52:21.697Z,47.80
2019-04-23T22:57:09.021Z,47.87
2019-04-23T23:02:26.988Z,48.46
2019-04-23T23:07:20.166Z,48.33
2019-04-23T23:12:14.392Z,48.93
2019-04-23T23:22:11.875Z,49.40
2019-04-23T23:26:57.497Z,49.58
2019-04-23T23:32:02.199Z,49.76
2019-04-23T23:41:55.085Z,49.57
2019-04-23T23:56:38.738Z,51.45
